Airfield :
LOGIN :

Register | Disclaimer

   EN    FR    IT 

 










Legend :    VFR   Marginal VFR   IFR   Intensive IFR   Very Intensive IFR
Visi :
Ceiling :
>= 8 km
>= 3000ft
5 to 8 km
1000 to 3000 ft
1500m to 5 km
500 to 1000 ft
800 to 1500m
200 to 500 ft
< 800m
< 200 ft
Symbols :   Thunderstorms  Fog  Heavy snow  Heavy precipitations  Wind > 20 kt
SIGMETs :     Misc.  Thunderstorms  Icing  Turbulence  Mountain Waves  Volcanic Ashes







- Airport Elevation : 1521 ft
- IATA code : NCY
- Download approach charts


LFLP - Annecy

CURRENT METAR :
  • 211130Z AUTO 20006KT 160V290 CAVOK 23/12 Q1022 NOSIG

EXPIRED METARs :
  • 211100Z AUTO VRB02KT CAVOK 23/11 Q1023 NOSIG
  • 211030Z AUTO VRB02KT CAVOK 22/11 Q1023 NOSIG
  • 211000Z AUTO 25003KT 200V310 CAVOK 21/11 Q1023 NOSIG
  • 210930Z AUTO VRB02KT CAVOK 20/11 Q1024 NOSIG
  • 210900Z AUTO VRB01KT CAVOK 19/10 Q1024 NOSIG

TAF TAF LFLP
Valid from the 21 at 09:00 until the 22 at 09:00 UTC


210800Z 2109/2209 VRB03KT CAVOK
BECMG 2111/2114 36007KT
BECMG 2118/2120 VRB02KT
No reported NOTAMs for that airfield.



MET'MAP, your aeronautical weather chart ! - Copyright ORBIFLY December 2007 - Disclaimer

ORBIFLY MET'MAP TEAM :

Programming & Development : Alexandra Zaïnal
Concept & Development : Baudouin d'Aumeries
Co-Development & Prog : Marc-Olivier Méhu
Technical & hardware support : Manuel Goepfert

Contact : metmap@orbifly.com




SOURCES & CREDITS :

   NOAA